Braunau, Austria
Current Conditions -  °F | °C
As of 7:50 AM on Sunday 26 Oct 2014 (Local Time) from LOWS Reporting Station
Drizzle Drizzle  
Wind Chill: 42°   Ceiling: 3500
Heat Index: 45°   Visibility: 6mi
Dew Point: 43°   Wind: 5mph
Humidity: 93%   Direction: 150°SSE
Pressure: 30.33"   Gusts: NA
Location:  48.26°N, 13.04°E
Report Text: LOWS 260650Z 15004KT 110V170 9999 -DZ FEW005 SCT025 BKN035 07/06 Q1027 NOSIG
Loading
Personal Weather Stations






























Interactive Weather Map
Tropical Storm Tracking
New forecast layout! Learn more

10-Day Weather Forecast

Advertisements
Track Severe Weather on mobile